Tiempo atmosférico en la estación meteorológica de Camaleño, Fuente De, Cantabria (1090 m.)



Fecha
DESCASC
Temp. máxima en grados centígrados (hora)
DESCASC
Temp. mínima en grados centígrados (hora)
DESCASC
Temp. media en grados centígrados
DESCASC
Racha de viento máxima en m/sg (hora)
DESCASC
Velocidad máxima media en intervalos de 10 minutos(hora)
DESCASC
Precipitaciones diarias en mm
DESCASC
Precipitaciones de 00:00 a 06:00 en mm
DESCASC
Precipitaciones de 06:00 a 12:00 en mm
DESCASC
Precipitaciones de 12:00 a 18:00 en mm
DESCASC
Precipitaciones de 18:00 a 24:00 en mm
DESCASC
17-09-2020 21.8 (16:20) 13.9 (08:30) 17.8 3.33 (05:40) 1.94 (05:40) 1.4 1.4 0 0 0
16-09-2020 25.3 (16:30) 12.1 (07:30) 18.7 3.06 (13:10) 1.67 (17:00) 0 0 0 0 0
15-09-2020 24.1 (15:50) 12.2 (08:10) 18.2 6.11 (03:10) 2.22 (16:10) 8.2 8 0.2 0 0
14-09-2020 26.4 (13:10) 13.8 (00:00) 20.1 9.72 (21:50) 4.44 (21:50) 17 0 0 0 17
13-09-2020 30.4 (16:50) 12.3 (00:00) 21.3 5.83 (14:40) 2.22 (14:40) 0 0 0 0 0
12-09-2020 27.2 (16:20) 11 (00:00) 19.1 4.17 (14:30) 1.67 (16:10) 0 0 0 0 0
11-09-2020 26.7 (16:00) 9.8 (00:00) 18.3 4.72 (17:20) 1.94 (17:20) 0 0 0 0 0
10-09-2020 24.9 (15:30) 8.8 (00:00) 16.8 4.17 (16:40) 1.67 (16:40) 0 0 0 0 0
09-09-2020 24.5 (16:10) 8.7 (00:00) 16.6 4.17 (15:10) 1.67 (13:40) 0 0 0 0 0
08-09-2020 23.5 (17:20) 5.2 (00:00) 14.3 2.78 (15:10) 1.39 (12:50) 0 0 0 0 0
07-09-2020 16.2 (17:30) 8.9 (07:40) 12.6 6.39 (12:20) 2.5 (12:10) 0.2 0.2 0 0 0
06-09-2020 15 (14:40) 9.7 (00:00) 12.3 2.78 (16:30) 1.39 (16:30) 3.4 1 2.4 0 0
05-09-2020 -- (--) -- (--) -- -- (--) -- (--) -- 0 -- 0 3.8
04-09-2020 30.9 (16:20) 12.8 (00:00) 21.8 5 (12:20) 1.67 (12:00) 0 0 0 0 0
03-09-2020 27.9 (16:50) 9.6 (00:00) 18.8 3.33 (15:10) 1.39 (12:00) 0 0 0 0 0
02-09-2020 23.1 (17:10) 7.2 (00:00) 15.2 3.61 (15:00) 1.39 (16:40) 0 0 0 0 0
01-09-2020 21.3 (16:00) 8 (00:00) 14.6 5.28 (14:50) 1.94 (16:20) 0 0 0 0 0
31-08-2020 20.2 (15:30) 4.6 (00:00) 12.4 4.17 (15:40) 1.39 (12:00) 0 0 0 0 0
30-08-2020 12.4 (17:40) 6.4 (00:00) 9.4 2.78 (13:40) 1.39 (14:10) 9.2 4.2 4.4 0.6 0
29-08-2020 9.7 (14:30) 6.8 (00:00) 8.3 5.83 (01:30) 1.67 (01:30) 38.4 1 15.4 15.4 6.6
28-08-2020 18.2 (17:10) 9.3 (00:00) 13.8 8.89 (17:20) 3.61 (17:20) 0.2 0.2 0 0 0
27-08-2020 27.7 (16:00) 15 (00:00) 21.4 4.44 (14:40) 1.67 (15:10) 0 0 0 0 0
26-08-2020 27.4 (17:20) 13.4 (00:00) 20.4 3.89 (14:10) 1.67 (19:10) 0 0 0 0 0
25-08-2020 27.8 (16:20) 13.2 (00:00) 20.5 5.56 (17:00) 1.94 (17:00) 0 0 0 0 0
24-08-2020 25.8 (17:50) 12.2 (00:00) 19 3.33 (15:40) 1.39 (14:00) 0.4 0.2 0.2 0 0
23-08-2020 23.1 (16:10) 10.7 (00:00) 16.9 3.89 (15:00) 1.39 (11:00) 0.2 0.2 0 0 0
22-08-2020 22.7 (14:50) 12.8 (00:00) 17.8 5.83 (15:00) 2.22 (15:20) 0.4 0 0 0 0.4
21-08-2020 24.4 (16:10) 13.3 (00:00) 18.8 7.78 (12:00) 2.5 (01:30) 0 0 0 0 0
20-08-2020 23 (13:00) 14.7 (00:00) 18.8 7.5 (17:30) 2.78 (23:10) 16 0 0.4 10.4 5.2
19-08-2020 26.5 (16:30) 14.7 (00:00) 20.6 10.83 (10:10) 4.17 (08:30) 0 0 0 0 0

Gráficas

Temp. máximas Temp. mínimas Temp. medias Precipitaciones Rachas de viento máximas Velocidades máximas media en intervalos de 10 minutos

Datos horarios

Fecha y hora oficial Temperatura (ºC) Velocidad del viento (km/h) Dirección del viento Racha (km/h) Dirección de racha Precipitación (mm) Presión (hPa) Tendencia (hPa) Humedad (%)
2020-09-17 23:00:00 15.3 2 Oeste 5 Oeste 0 -- -- 88
2020-09-17 22:00:00 15.5 3 Sudoeste 8 Noroeste 0 -- -- 87
2020-09-17 21:00:00 16 3 Sudoeste 8 Oeste 0 -- -- 87
2020-09-17 20:00:00 17.6 3 Sudoeste 6 Sudoeste 0 -- -- 84
2020-09-17 19:00:00 18.9 3 Oeste 6 Oeste 0 -- -- 81
2020-09-17 18:00:00 19.8 0 Calma 5 Noroeste 0 -- -- 80
2020-09-17 17:00:00 20.4 4 Oeste 6 Sudoeste 0 -- -- 76
2020-09-17 16:00:00 21.4 0 Calma 5 Sudoeste 0 -- -- 73
2020-09-17 15:00:00 20.1 2 Noroeste 5 Oeste 0 -- -- 78
2020-09-17 14:00:00 20.2 2 Norte 6 Sudoeste 0 -- -- 76
2020-09-17 13:00:00 20 0 Calma 4 Noroeste 0 -- -- 70
2020-09-17 12:00:00 18.4 0 Calma 6 Noroeste 0 -- -- 86
2020-09-17 11:00:00 15.8 3 Sudoeste 6 Oeste 0 -- -- 97
2020-09-17 10:00:00 14.6 0 Calma 5 Oeste 0 -- -- 98
2020-09-17 09:00:00 14 0 Calma 5 Oeste 0 -- -- 98
2020-09-17 08:00:00 14 3 Oeste 6 Oeste 0 -- -- 98
2020-09-17 07:00:00 14.3 3 Oeste 8 Oeste 0 -- -- 98
2020-09-17 06:00:00 14.7 4 Oeste 12 Noroeste 0.8 -- -- 97
2020-09-17 05:00:00 15.4 2 Sudoeste 11 Oeste 0.6 -- -- 93
2020-09-17 04:00:00 15.4 3 Oeste 7 Oeste 0 -- -- 90
2020-09-17 03:00:00 14.8 0 Calma 5 Oeste 0 -- -- 90
2020-09-17 02:00:00 14.6 2 Sudoeste 5 Sudoeste 0 -- -- 90
2020-09-17 01:00:00 14.9 2 Sudoeste 6 Sudoeste 0 -- -- 90
2020-09-17 00:00:00 14.9 3 Oeste 5 Sudoeste 0 -- -- 90
2020-09-16 23:00:00 15.2 2 Sur 4 Sur 0 -- -- 88
2020-09-16 22:00:00 15.4 0 Calma 5 Oeste 0 -- -- 82
2020-09-16 21:00:00 16 2 Sudoeste 5 Sudoeste 0 -- -- 77
2020-09-16 20:00:00 18.1 0 Calma 6 Oeste 0 -- -- 72
2020-09-16 19:00:00 20.2 3 Sudoeste 8 Sudoeste 0 -- -- 73
2020-09-16 18:00:00 22.8 0 Calma 6 Sudoeste 0 -- -- 65
2020-09-16 17:00:00 24.8 6 Oeste 10 Sur 0 -- -- 53
2020-09-16 16:00:00 24.4 2 Oeste 7 Oeste 0 -- -- 56
2020-09-16 15:00:00 23.6 0 Calma 7 Sudoeste 0 -- -- 55
2020-09-16 14:00:00 24.6 4 Sudeste 11 Sudeste 0 -- -- 51
2020-09-16 13:00:00 23.9 3 Sudeste 10 Este 0 -- -- 49
2020-09-16 12:00:00 20.3 3 Sur 8 Sur 0 -- -- 63
2020-09-16 11:00:00 16.8 0 Calma 4 Este 0 -- -- 79
2020-09-16 10:00:00 13.7 0 Calma 5 Noroeste 0 -- -- 90
2020-09-16 09:00:00 12.3 0 Calma 5 Noroeste 0 -- -- 92
2020-09-16 08:00:00 12.2 2 Sudoeste 5 Sudoeste 0 -- -- 89
2020-09-16 07:00:00 12.3 2 Oeste 5 Noroeste 0 -- -- 90
2020-09-16 06:00:00 12.3 2 Noroeste 5 Oeste 0 -- -- 90
2020-09-16 05:00:00 12.6 0 Calma 4 Oeste 0 -- -- 90
2020-09-16 04:00:00 12.8 3 Oeste 5 Sudoeste 0 -- -- 91
2020-09-16 03:00:00 12.8 2 Oeste 6 Sudoeste 0 -- -- 92
2020-09-16 02:00:00 13.1 3 Sudoeste 5 Sur 0 -- -- 94
2020-09-16 01:00:00 13.4 2 Oeste 6 Noroeste 0 -- -- 93
2020-09-16 00:00:00 13.8 2 Oeste 6 Sudoeste 0 -- -- 94
2020-09-15 23:00:00 13.9 0 Calma 5 Oeste 0 -- -- 94
2020-09-15 22:00:00 14.5 2 Oeste 6 Noroeste 0 -- -- 93
2020-09-15 21:00:00 15.5 0 Calma 5 Sudoeste 0 -- -- 89
2020-09-15 20:00:00 17.3 0 Calma 8 Sudoeste 0 -- -- 78
2020-09-15 19:00:00 19.6 0 Calma 8 Noroeste 0 -- -- 66
2020-09-15 18:00:00 21.1 3 Oeste 11 Sur 0 -- -- 58
2020-09-15 17:00:00 23.3 3 Oeste 20 Sur 0 -- -- 56
2020-09-15 16:00:00 24.1 5 Este 19 Nordeste 0 -- -- 46
2020-09-15 15:00:00 23.5 4 Nordeste 15 Nordeste 0 -- -- 48
2020-09-15 14:00:00 23.3 4 Noroeste 12 Norte 0 -- -- 49
2020-09-15 13:00:00 21.5 5 Este 19 Oeste 0 -- -- 59
2020-09-15 12:00:00 19.5 5 Sudoeste 17 Noroeste 0 -- -- 67
2020-09-15 11:00:00 16.2 3 Sudeste 8 Sur 0 -- -- 85
2020-09-15 10:00:00 13.8 3 Noroeste 5 Noroeste 0 -- -- 100
2020-09-15 09:00:00 12.9 3 Sudoeste 8 Sudoeste 0 -- -- 100
2020-09-15 08:00:00 12.3 3 Oeste 11 Sudoeste 0 -- -- 99
2020-09-15 07:00:00 12.5 4 Oeste 13 Noroeste 0.2 -- -- 99
2020-09-15 06:00:00 12.6 2 Sudoeste 7 Noroeste 0.2 -- -- 98
2020-09-15 05:00:00 13.1 3 Oeste 13 Noroeste 2.8 -- -- 99
2020-09-15 04:00:00 13.2 2 Sudeste 22 Noroeste 1.8 -- -- 98
2020-09-15 03:00:00 13.6 5 Noroeste 13 Noroeste 2.8 -- -- 97
2020-09-15 02:00:00 13.5 2 Sur 4 Sudoeste 0 -- -- 99
2020-09-15 01:00:00 13.8 0 Calma 8 Sudoeste 0.4 -- -- 98
2020-09-15 00:00:00 13.8 2 Oeste 6 Oeste 0 -- -- 98
2020-09-14 23:00:00 14.2 4 Noroeste 16 Noroeste 5.4 -- -- 97
2020-09-14 22:00:00 16.3 11 Noroeste 35 Noroeste 11.6 -- -- 86
2020-09-14 21:00:00 17 2 Oeste 6 Oeste 0 -- -- 75
2020-09-14 20:00:00 18.7 4 Sudoeste 7 Noroeste 0 -- -- 71
2020-09-14 19:00:00 21.3 3 Sudoeste 5 Oeste 0 -- -- 69
2020-09-14 18:00:00 23 2 Oeste 10 Sudoeste 0 -- -- 59
2020-09-14 17:00:00 25.1 3 Sudoeste 9 Nordeste 0 -- -- 46
2020-09-14 16:00:00 23.2 0 Calma 8 Oeste 0 -- -- 48
2020-09-14 15:00:00 22.1 3 Sudoeste 13 Sur 0 -- -- 62
2020-09-14 14:00:00 25.2 5 Sudoeste 19 Noroeste 0 -- -- 38
2020-09-14 13:00:00 26.2 5 Nordeste 17 Noroeste 0 -- -- 40
2020-09-14 12:00:00 24 3 Sur 13 Noroeste 0 -- -- 49
2020-09-14 11:00:00 22 0 Calma 7 Noroeste 0 -- -- 53
2020-09-14 10:00:00 22 4 Oeste 20 Oeste 0 -- -- 41
2020-09-14 09:00:00 20.3 8 Noroeste 18 Noroeste 0 -- -- 48
2020-09-14 08:00:00 21.2 7 Noroeste 26 Noroeste 0 -- -- 46
2020-09-14 07:00:00 21 10 Noroeste 23 Noroeste 0 -- -- 45
2020-09-14 06:00:00 21.9 8 Noroeste 20 Noroeste 0 -- -- 42
2020-09-14 05:00:00 22.9 4 Noroeste 24 Noroeste 0 -- -- 40
2020-09-14 04:00:00 23 5 Oeste 18 Oeste 0 -- -- 40
2020-09-14 03:00:00 22.1 7 Noroeste 23 Oeste 0 -- -- 41
2020-09-14 02:00:00 21.2 8 Noroeste 21 Noroeste 0 -- -- 42
2020-09-14 01:00:00 17 2 Sur 5 Sudoeste 0 -- -- 59
2020-09-14 00:00:00 17 2 Oeste 5 Noroeste 0 -- -- 61
2020-09-13 23:00:00 17.1 2 Oeste 8 Noroeste 0 -- -- 61
2020-09-13 22:00:00 17.7 2 Oeste 5 Sudoeste 0 -- -- 61
2020-09-13 21:00:00 19.3 0 Calma 6 Oeste 0 -- -- 56
2020-09-13 20:00:00 20.8 0 Calma 8 Oeste 0 -- -- 52
2020-09-13 19:00:00 22.9 3 Oeste 9 Oeste 0 -- -- 46
2020-09-13 18:00:00 28.7 4 Sudoeste 13 Noroeste 0 -- -- 35
2020-09-13 17:00:00 29.9 5 Este 16 Noroeste 0 -- -- 30
2020-09-13 16:00:00 29.7 5 Sur 13 Sudoeste 0 -- -- 28
2020-09-13 15:00:00 29.4 5 Oeste 21 Sur 0 -- -- 26
2020-09-13 14:00:00 28.9 6 Sudoeste 18 Oeste 0 -- -- 25
2020-09-13 13:00:00 27.6 4 Sur 15 Sudeste 0 -- -- 31
2020-09-13 12:00:00 23.9 5 Este 14 Sudoeste 0 -- -- 38
2020-09-13 11:00:00 19.5 3 Noroeste 6 Este 0 -- -- 53
2020-09-13 10:00:00 14.7 0 Calma 5 Oeste 0 -- -- 71
2020-09-13 09:00:00 12.6 0 Calma 5 Noroeste 0 -- -- 69
2020-09-13 08:00:00 12.4 0 Calma 5 Noroeste 0 -- -- 68
2020-09-13 07:00:00 12.8 0 Calma 5 Oeste 0 -- -- 69
2020-09-13 06:00:00 12.9 2 Oeste 5 Oeste 0 -- -- 69
2020-09-13 05:00:00 12.9 0 Calma 5 Noroeste 0 -- -- 68
2020-09-13 04:00:00 13.1 0 Calma 5 Oeste 0 -- -- 65
2020-09-13 03:00:00 13.1 2 Oeste 4 Oeste 0 -- -- 65
2020-09-13 02:00:00 13.1 0 Calma 5 Noroeste 0 -- -- 65
2020-09-13 01:00:00 13.4 0 Calma 5 Sudoeste 0 -- -- 65
2020-09-13 00:00:00 13.8 0 Calma 5 Oeste 0 -- -- 68
2020-09-12 23:00:00 14.1 0 Calma 4 Oeste 0 -- -- 70
2020-09-12 22:00:00 14.7 0 Calma 4 Sudoeste 0 -- -- 71
2020-09-12 21:00:00 15.6 3 Oeste 5 Noroeste 0 -- -- 68
2020-09-12 20:00:00 17.5 2 Sudoeste 6 Oeste 0 -- -- 64
2020-09-12 19:00:00 20.3 4 Sudoeste 9 Sur 0 -- -- 57
2020-09-12 18:00:00 25.9 4 Sudoeste 12 Sudoeste 0 -- -- 42
2020-09-12 17:00:00 27.1 4 Sudoeste 14 Sudoeste 0 -- -- 35
2020-09-12 16:00:00 27.1 4 Sudoeste 14 Sur 0 -- -- 35
2020-09-12 15:00:00 26.9 5 Sudoeste 15 Oeste 0 -- -- 38
2020-09-12 14:00:00 26.5 5 Sudoeste 13 Sudoeste 0 -- -- 36
2020-09-12 13:00:00 25 4 Sudeste 8 Este 0 -- -- 37
2020-09-12 12:00:00 19.9 5 Este 8 Este 0 -- -- 62
2020-09-12 11:00:00 16.2 0 Calma 3 Noroeste 0 -- -- 72
2020-09-12 10:00:00 12.9 0 Calma 2 Nordeste 0 -- -- 85
2020-09-12 09:00:00 11.5 0 Calma 4 Noroeste 0 -- -- 84
2020-09-12 08:00:00 11.1 0 Calma 4 Oeste 0 -- -- 82
2020-09-12 07:00:00 11.3 0 Calma 4 Sudoeste 0 -- -- 83
2020-09-12 06:00:00 11.5 0 Calma 4 Oeste 0 -- -- 85
2020-09-12 05:00:00 11.8 2 Sudoeste 4 Sudoeste 0 -- -- 82
2020-09-12 04:00:00 12.1 0 Calma 4 Noroeste 0 -- -- 85
2020-09-12 03:00:00 12.3 0 Calma 4 Oeste 0 -- -- 90
2020-09-12 02:00:00 12.5 0 Calma 4 Noroeste 0 -- -- 94
2020-09-12 01:00:00 12.9 0 Calma 3 Oeste 0 -- -- 95
2020-09-12 00:00:00 13.3 0 Calma 3 Oeste 0 -- -- 94
2020-09-11 23:00:00 13.8 0 Calma 3 Sudoeste 0 -- -- 93
2020-09-11 22:00:00 14.5 2 Sudoeste 4 Sudoeste 0 -- -- 90
2020-09-11 21:00:00 15.6 2 Sudoeste 5 Sudoeste 0 -- -- 84
2020-09-11 20:00:00 17.4 2 Sudoeste 6 Sudoeste 0 -- -- 76
2020-09-11 19:00:00 20.1 4 Sudoeste 10 Sudoeste 0 -- -- 63
2020-09-11 18:00:00 25.5 4 Oeste 17 Oeste 0 -- -- 45
2020-09-11 17:00:00 26.4 5 Sudoeste 14 Sur 0 -- -- 40
2020-09-11 16:00:00 26.7 4 Sudoeste 12 Sudoeste 0 -- -- 38
2020-09-11 15:00:00 26.1 3 Sudoeste 11 Sudoeste 0 -- -- 37
2020-09-11 14:00:00 24.8 3 Este 10 Este 0 -- -- 43
2020-09-11 13:00:00 23.1 3 Sudeste 8 Nordeste 0 -- -- 48
2020-09-11 12:00:00 18.6 5 Este 8 Este 0 -- -- 57
2020-09-11 11:00:00 14.4 2 Norte 4 Este 0 -- -- 79
2020-09-11 10:00:00 11.2 0 Calma 3 Noroeste 0 -- -- 92
2020-09-11 09:00:00 9.9 0 Calma 3 Noroeste 0 -- -- 92
2020-09-11 08:00:00 9.9 0 Calma 3 Oeste 0 -- -- 93
2020-09-11 07:00:00 10.1 0 Calma 4 Oeste 0 -- -- 95
2020-09-11 06:00:00 10.4 0 Calma 3 Oeste 0 -- -- 97
2020-09-11 05:00:00 10.6 0 Calma 4 Oeste 0 -- -- 96
2020-09-11 04:00:00 11 0 Calma 3 Sudoeste 0 -- -- 97
2020-09-11 03:00:00 11.2 0 Calma 3 Oeste 0 -- -- 97
2020-09-11 02:00:00 11.5 0 Calma 4 Sudoeste 0 -- -- 97
2020-09-11 01:00:00 11.9 0 Calma 4 Sudoeste 0 -- -- 96
2020-09-11 00:00:00 12.3 0 Calma 3 Sudoeste 0 -- -- 94
2020-09-10 23:00:00 12.7 0 Calma 4 Oeste 0 -- -- 92
2020-09-10 22:00:00 13.6 0 Calma 4 Noroeste 0 -- -- 88
2020-09-10 21:00:00 14.7 2 Oeste 4 Sudoeste 0 -- -- 86
2020-09-10 20:00:00 16.3 0 Calma 6 Sudoeste 0 -- -- 80
2020-09-10 19:00:00 19.3 3 Sudoeste 9 Sudoeste 0 -- -- 68
2020-09-10 18:00:00 24.4 3 Oeste 12 Oeste 0 -- -- 48
2020-09-10 17:00:00 24.6 5 Sudoeste 15 Sur 0 -- -- 46
2020-09-10 16:00:00 24.7 5 Sudoeste 14 Sudoeste 0 -- -- 45
2020-09-10 15:00:00 24.3 4 Sur 12 Sur 0 -- -- 45
2020-09-10 14:00:00 23.5 4 Este 13 Sudoeste 0 -- -- 43
2020-09-10 13:00:00 22.4 4 Sur 13 Sudoeste 0 -- -- 46
2020-09-10 12:00:00 18.2 4 Este 9 Este 0 -- -- 59
2020-09-10 11:00:00 14 3 Este 5 Este 0 -- -- 76
2020-09-10 10:00:00 10.7 0 Calma 3 Noroeste 0 -- -- 86
2020-09-10 09:00:00 9.2 0 Calma 4 Noroeste 0 -- -- 88
2020-09-10 08:00:00 8.9 0 Calma 4 Noroeste 0 -- -- 86
2020-09-10 07:00:00 8.9 0 Calma 4 Noroeste 0 -- -- 86
2020-09-10 06:00:00 9.1 0 Calma 4 Oeste 0 -- -- 84
2020-09-10 05:00:00 9.4 0 Calma 4 Oeste 0 -- -- 84
2020-09-10 04:00:00 9.7 0 Calma 4 Oeste 0 -- -- 83
2020-09-10 03:00:00 9.9 0 Calma 4 Noroeste 0 -- -- 87
2020-09-10 02:00:00 10.2 0 Calma 5 Oeste 0 -- -- 90
2020-09-10 01:00:00 10.5 0 Calma 4 Sudoeste 0 -- -- 89
2020-09-10 00:00:00 11 0 Calma 4 Oeste 0 -- -- 87
2020-09-09 23:00:00 11.6 2 Sudoeste 4 Sudoeste 0 -- -- 85
2020-09-09 22:00:00 12.4 0 Calma 4 Oeste 0 -- -- 83
2020-09-09 21:00:00 13.6 2 Sudoeste 6 Sudoeste 0 -- -- 79
2020-09-09 20:00:00 15.2 3 Oeste 7 Sudoeste 0 -- -- 73
2020-09-09 19:00:00 18.5 3 Sudoeste 8 Oeste 0 -- -- 63
2020-09-09 18:00:00 23.2 5 Sudoeste 13 Sudoeste 0 -- -- 44
2020-09-09 17:00:00 24 5 Sudoeste 15 Sur 0 -- -- 43
2020-09-09 16:00:00 24.4 4 Oeste 15 Oeste 0 -- -- 40
2020-09-09 15:00:00 24 4 Sudoeste 12 Sudoeste 0 -- -- 38
2020-09-09 14:00:00 23.6 5 Sudeste 15 Sur 0 -- -- 37
2020-09-09 13:00:00 22.7 4 Sudoeste 11 Sudoeste 0 -- -- 44
2020-09-09 12:00:00 18 5 Este 8 Nordeste 0 -- -- 65
2020-09-09 11:00:00 14.4 0 Calma 4 Noroeste 0 -- -- 75
2020-09-09 10:00:00 11 0 Calma 4 Norte 0 -- -- 81
2020-09-09 09:00:00 9.1 0 Calma 5 Sudoeste 0 -- -- 87
2020-09-09 08:00:00 8.8 0 Calma 4 Sudoeste 0 -- -- 86
2020-09-09 07:00:00 8.8 0 Calma 5 Oeste 0 -- -- 86
2020-09-09 06:00:00 9 0 Calma 6 Oeste 0 -- -- 87
2020-09-09 05:00:00 9.2 3 Oeste 7 Oeste 0 -- -- 87
2020-09-09 04:00:00 9.7 3 Sudoeste 6 Oeste 0 -- -- 89
2020-09-09 03:00:00 9.6 2 Oeste 5 Oeste 0 -- -- 93
2020-09-09 02:00:00 9.8 0 Calma 5 Oeste 0 -- -- 94
2020-09-09 01:00:00 9.7 0 Calma 4 Sudoeste 0 -- -- 96
2020-09-09 00:00:00 9.8 0 Calma 4 Noroeste 0 -- -- 94
2020-09-08 23:00:00 10.5 0 Calma 4 Sudoeste 0 -- -- 91
2020-09-08 22:00:00 11.3 0 Calma 4 Sudoeste 0 -- -- 88
2020-09-08 21:00:00 12.4 0 Calma 5 Sudoeste 0 -- -- 84
2020-09-08 20:00:00 14 2 Sudoeste 6 Oeste 0 -- -- 76
2020-09-08 19:00:00 17.8 3 Sudoeste 6 Sudoeste 0 -- -- 62
2020-09-08 18:00:00 22 3 Sudoeste 8 Oeste 0 -- -- 51
2020-09-08 17:00:00 23.2 3 Sudoeste 9 Noroeste 0 -- -- 35
2020-09-08 16:00:00 22.1 3 Sudoeste 10 Sudoeste 0 -- -- 38
2020-09-08 15:00:00 21 4 Sudoeste 10 Este 0 -- -- 37
2020-09-08 14:00:00 20.3 4 Sur 9 Sudoeste 0 -- -- 37
2020-09-08 13:00:00 18.8 3 Sudeste 10 Este 0 -- -- 44
2020-09-08 12:00:00 15.4 4 Sur 9 Nordeste 0 -- -- 51
2020-09-08 11:00:00 11.4 0 Calma 4 Noroeste 0 -- -- 59
2020-09-08 10:00:00 7.6 0 Calma 5 Sur 0 -- -- 77
2020-09-08 09:00:00 6.2 0 Calma 6 Oeste 0 -- -- 81
2020-09-08 08:00:00 5.9 0 Calma 6 Sudoeste 0 -- -- 79
2020-09-08 07:00:00 5.6 0 Calma 7 Oeste 0 -- -- 84
2020-09-08 06:00:00 5.2 0 Calma 6 Oeste 0 -- -- 87
2020-09-08 05:00:00 5.3 0 Calma 4 Noroeste 0 -- -- 88
2020-09-08 04:00:00 5.5 0 Calma 5 Oeste 0 -- -- 92
2020-09-08 03:00:00 6 2 Oeste 5 Oeste 0 -- -- 94
2020-09-08 02:00:00 7 2 Sudoeste 4 Sudoeste 0 -- -- 96
2020-09-08 01:00:00 7.8 2 Sudoeste 5 Sudoeste 0 -- -- 95
2020-09-08 00:00:00 9.2 2 Sudoeste 4 Oeste 0 -- -- 93
2020-09-07 23:00:00 10.2 0 Calma 3 Sur 0 -- -- 93
2020-09-07 22:00:00 10.6 0 Calma 4 Oeste 0 -- -- 91
2020-09-07 21:00:00 11.7 0 Calma 5 Sudoeste 0 -- -- 87
2020-09-07 20:00:00 13.4 0 Calma 9 Sudoeste 0 -- -- 77
2020-09-07 19:00:00 14.9 3 Sudoeste 10 Sudoeste 0 -- -- 74
2020-09-07 18:00:00 15.8 3 Nordeste 12 Sudoeste 0 -- -- 69
2020-09-07 17:00:00 15.6 3 Sudoeste 16 Sudoeste 0 -- -- 65
2020-09-07 16:00:00 15.3 5 Sudoeste 15 Oeste 0 -- -- 66
2020-09-07 15:00:00 14.5 6 Sudoeste 17 Sur 0 -- -- 68
2020-09-07 14:00:00 13.8 6 Sudoeste 16 Sur 0 -- -- 72
2020-09-07 13:00:00 13.3 6 Sudoeste 23 Sur 0 -- -- 74
2020-09-07 12:00:00 11.8 8 Sudoeste 16 Oeste 0 -- -- 80
2020-09-07 11:00:00 11.3 2 Norte 10 Sudoeste 0 -- -- 84
2020-09-07 10:00:00 10.2 3 Oeste 8 Sur 0 -- -- 90
2020-09-07 09:00:00 9.4 2 Oeste 5 Sudeste 0 -- -- 93
2020-09-07 08:00:00 8.9 2 Sudoeste 9 Sudoeste 0 -- -- 99
2020-09-07 07:00:00 9 3 Sudoeste 11 Sur 0 -- -- 99
2020-09-07 06:00:00 9.2 4 Sudoeste 13 Sur 0.2 -- -- 100
2020-09-07 05:00:00 9.3 5 Sudoeste 12 Sudoeste 0 -- -- 99
2020-09-07 04:00:00 9.5 0 Calma 6 Oeste 0 -- -- 97
2020-09-07 03:00:00 9.5 0 Calma 4 Sudoeste 0 -- -- 98
2020-09-07 02:00:00 9.3 2 Sudoeste 3 Sur 0 -- -- 98
2020-09-07 01:00:00 9.3 0 Calma 4 Este 0 -- -- 97
2020-09-07 00:00:00 9.7 2 Oeste 4 Oeste 0 -- -- 96
2020-09-06 23:00:00 10 2 Sudoeste 4 Sudoeste 0 -- -- 95
2020-09-06 22:00:00 10.4 0 Calma 8 Sudoeste 0 -- -- 95
2020-09-06 21:00:00 10.6 4 Sudoeste 10 Sudoeste 0 -- -- 93
2020-09-06 20:00:00 11.2 2 Sudoeste 8 Sudoeste 0 -- -- 92
2020-09-06 19:00:00 11.8 2 Oeste 10 Sudoeste 0 -- -- 93
2020-09-06 18:00:00 12.4 3 Sudoeste 9 Sudoeste 0 -- -- 91
2020-09-06 17:00:00 13.1 3 Sudoeste 10 Sudoeste 0 -- -- 88
2020-09-06 16:00:00 14.4 3 Sudoeste 9 Sudoeste 0 -- -- 85
2020-09-06 15:00:00 15 4 Sur 8 Sudoeste 0 -- -- 84
2020-09-06 14:00:00 14.4 2 Este 5 Este 0 -- -- 89
2020-09-06 13:00:00 13.6 0 Calma 5 Este 0 -- -- 89
2020-09-06 12:00:00 12.5 0 Calma 5 Nordeste 0 -- -- 96
2020-09-06 11:00:00 11.7 2 Norte 9 Sudoeste 0.2 -- -- 97
2020-09-06 10:00:00 11 3 Sur 8 Sudoeste 0.4 -- -- 99
2020-09-06 09:00:00 10.8 0 Calma 7 Sudoeste 0.6 -- -- 99
2020-09-06 08:00:00 10.9 2 Sudoeste 4 Sudoeste 0.8 -- -- 99
2020-09-06 07:00:00 11.2 2 Oeste 5 Sudoeste 0.4 -- -- 99
2020-09-06 06:00:00 11.6 0 Calma 6 Sur 0.4 -- -- 99
2020-09-06 05:00:00 12 3 Oeste 7 Sudoeste 0.4 -- -- 99
2020-09-06 04:00:00 12.2 2 Oeste 5 Sudoeste 0 -- -- 99
2020-09-06 03:00:00 12.3 2 Sudoeste 6 Sudoeste 0 -- -- 99
2020-09-06 02:00:00 12.4 2 Sudoeste 6 Sudoeste 0 -- -- 99
2020-09-06 01:00:00 12.4 0 Calma 5 Sur 0.2 -- -- 99
2020-09-06 00:00:00 12.5 0 Calma 9 Sudoeste 0.4 -- -- 99
2020-09-05 23:00:00 12.8 3 Sudoeste 9 Sur 0.8 -- -- 99
2020-09-05 22:00:00 12.9 3 Sudoeste 7 Sudoeste 0.8 -- -- 99
2020-09-05 21:00:00 13.3 3 Sudoeste 10 Sudoeste 0.8 -- -- 98
2020-09-05 20:00:00 13.7 2 Sudoeste 8 Sudoeste 0.4 -- -- 97
2020-09-05 19:00:00 14 0 Calma 8 Sudoeste 0.6 -- -- 96
2020-09-05 18:00:00 14.3 3 Oeste 10 Sudoeste 0 -- -- 94
2020-09-05 17:00:00 15.4 3 Oeste 10 Sudoeste 0 -- -- 89
2020-09-05 16:00:00 16.3 2 Sudoeste 8 Sudoeste 0 -- -- 84
2020-09-05 15:00:00 16.9 3 Sudoeste 8 Sur 0 -- -- 82
2020-09-05 14:00:00 17.3 4 Sudoeste 10 Sudoeste 0 -- -- 81
2020-09-05 13:00:00 17 4 Sur -- -- -- -- -- 78
2020-09-05 12:00:00 -- -- -- -- -- -- -- -- --
2020-09-05 11:00:00 15.4 0 Calma 5 Sur 0 -- -- 84
2020-09-05 10:00:00 13.9 0 Calma 2 Este 0 -- -- 91
2020-09-05 09:00:00 12.2 0 Calma 2 Noroeste 0 -- -- 97
2020-09-05 08:00:00 11.1 0 Calma 2 Oeste 0 -- -- 98
2020-09-05 07:00:00 10.7 0 Calma 3 Sudoeste 0 -- -- 95
2020-09-05 06:00:00 11.1 0 Calma 3 Sur 0 -- -- 89
2020-09-05 05:00:00 12.1 0 Calma 4 Oeste 0 -- -- 86
2020-09-05 04:00:00 12.8 0 Calma 4 Oeste 0 -- -- 83
2020-09-05 03:00:00 13.5 0 Calma 3 Noroeste 0 -- -- 79
2020-09-05 02:00:00 13.8 0 Calma 4 Noroeste 0 -- -- 78
2020-09-05 01:00:00 14.6 0 Calma 4 Noroeste 0 -- -- 75
2020-09-05 00:00:00 15 0 Calma 5 Oeste 0 -- -- 74
2020-09-04 23:00:00 15.5 0 Calma 5 Oeste 0 -- -- 73
2020-09-04 22:00:00 16.1 0 Calma 5 Oeste 0 -- -- 71
2020-09-04 21:00:00 17.4 3 Sudoeste 6 Oeste 0 -- -- 66
2020-09-04 20:00:00 19.6 2 Oeste 8 Oeste 0 -- -- 63
2020-09-04 19:00:00 23.3 3 Sudoeste 11 Sudoeste 0 -- -- 53
2020-09-04 18:00:00 28.6 4 Oeste 13 Sudoeste 0 -- -- 39
2020-09-04 17:00:00 30.4 3 Sudeste 9 Sur 0 -- -- 30
2020-09-04 16:00:00 30.3 4 Sudoeste 13 Sudoeste 0 -- -- 24
2020-09-04 15:00:00 29.1 4 Nordeste 13 Noroeste 0 -- -- 28
2020-09-04 14:00:00 28.7 5 Norte 14 Sur 0 -- -- 27
2020-09-04 13:00:00 27.9 4 Este 18 Sur 0 -- -- 26
2020-09-04 12:00:00 24.4 6 Sur 17 Sudoeste 0 -- -- 34
2020-09-04 11:00:00 21.2 5 Sudeste 12 Sudeste 0 -- -- 47
2020-09-04 10:00:00 15.7 0 Calma 4 Oeste 0 -- -- 77
2020-09-04 09:00:00 13.6 2 Oeste 6 Sudoeste 0 -- -- 75
2020-09-04 08:00:00 13.3 0 Calma 6 Oeste 0 -- -- 73
2020-09-04 07:00:00 13 3 Oeste 8 Oeste 0 -- -- 76
2020-09-04 06:00:00 13 2 Oeste 6 Sudoeste 0 -- -- 75
2020-09-04 05:00:00 13 0 Calma 4 Noroeste 0 -- -- 77
2020-09-04 04:00:00 13.1 0 Calma 4 Noroeste 0 -- -- 86
2020-09-04 03:00:00 13.4 0 Calma 4 Noroeste 0 -- -- 90
2020-09-04 02:00:00 13.5 0 Calma 5 Oeste 0 -- -- 90
2020-09-04 01:00:00 13.8 0 Calma 4 Oeste 0 -- -- 90
2020-09-04 00:00:00 14.1 0 Calma 4 Sudoeste 0 -- -- 89
2020-09-03 23:00:00 14.5 0 Calma 4 Oeste 0 -- -- 87
2020-09-03 22:00:00 15.2 0 Calma 4 Oeste 0 -- -- 84
2020-09-03 21:00:00 16.5 0 Calma 4 Oeste 0 -- -- 79
2020-09-03 20:00:00 18.3 3 Oeste 5 Sudoeste 0 -- -- 73
2020-09-03 19:00:00 22.4 3 Sudoeste 8 Sudoeste 0 -- -- 61
2020-09-03 18:00:00 27.2 4 Oeste 10 Sudoeste 0 -- -- 44
2020-09-03 17:00:00 27.9 4 Sudoeste 9 Sur 0 -- -- 39
2020-09-03 16:00:00 27.4 4 Sur 12 Nordeste 0 -- -- 37
2020-09-03 15:00:00 27.1 5 Sudoeste 10 Sur 0 -- -- 37
2020-09-03 14:00:00 26.2 4 Sur 11 Sudoeste 0 -- -- 40
2020-09-03 13:00:00 23.9 3 Sudeste 9 Este 0 -- -- 48
2020-09-03 12:00:00 19.6 5 Este 8 Nordeste 0 -- -- 67
2020-09-03 11:00:00 16.5 0 Calma 3 Este 0 -- -- 73
2020-09-03 10:00:00 11.9 0 Calma 4 Noroeste 0 -- -- 91
2020-09-03 09:00:00 10.5 0 Calma 4 Noroeste 0 -- -- 90
2020-09-03 08:00:00 9.8 0 Calma 4 Noroeste 0 -- -- 88
2020-09-03 07:00:00 9.7 0 Calma 5 Oeste 0 -- -- 93
2020-09-03 06:00:00 9.8 0 Calma 5 Oeste 0 -- -- 95
2020-09-03 05:00:00 10.4 0 Calma 3 Oeste 0 -- -- 99
2020-09-03 04:00:00 10.7 0 Calma 4 Sudoeste 0 -- -- 99
2020-09-03 03:00:00 11 0 Calma 4 Oeste 0 -- -- 99
2020-09-03 02:00:00 11.3 0 Calma 3 Oeste 0 -- -- 99
2020-09-03 01:00:00 11.6 0 Calma 3 Sudoeste 0 -- -- 98
2020-09-03 00:00:00 11.8 0 Calma 3 Oeste 0 -- -- 97
2020-09-02 23:00:00 12.3 0 Calma 3 Oeste 0 -- -- 96
2020-09-02 22:00:00 12.9 0 Calma 4 Sudoeste 0 -- -- 93
2020-09-02 21:00:00 14.2 0 Calma 5 Sudoeste 0 -- -- 89
2020-09-02 20:00:00 16.1 2 Sudoeste 5 Sudoeste 0 -- -- 81
2020-09-02 19:00:00 20.2 2 Oeste 12 Sudoeste 0 -- -- 66
2020-09-02 18:00:00 22.8 3 Sudoeste 9 Sur 0 -- -- 55
2020-09-02 17:00:00 22.9 4 Sur 13 Sur 0 -- -- 51
2020-09-02 16:00:00 22.5 4 Sudoeste 11 Sudoeste 0 -- -- 48
2020-09-02 15:00:00 21.9 4 Oeste 13 Sudoeste 0 -- -- 51
2020-09-02 14:00:00 21 3 Sur 10 Sur 0 -- -- 53
2020-09-02 13:00:00 19.3 3 Sur 10 Sudoeste 0 -- -- 59
2020-09-02 12:00:00 15.8 3 Sudeste 8 Este 0 -- -- 67
2020-09-02 11:00:00 13.3 4 Este 7 Este 0 -- -- 75
2020-09-02 10:00:00 8.9 0 Calma 3 Noroeste 0 -- -- 100
2020-09-02 09:00:00 7.5 0 Calma 3 Noroeste 0 -- -- 100
2020-09-02 08:00:00 7.2 0 Calma 2 Noroeste 0 -- -- 99
2020-09-02 07:00:00 7.4 0 Calma 2 Oeste 0 -- -- 98
2020-09-02 06:00:00 7.9 0 Calma 4 Oeste 0 -- -- 97
2020-09-02 05:00:00 8.6 2 Sudoeste 5 Oeste 0 -- -- 95
2020-09-02 04:00:00 9.9 0 Calma 4 Oeste 0 -- -- 95
2020-09-02 03:00:00 10.3 0 Calma 2 Noroeste 0 -- -- 97
2020-09-02 02:00:00 9.8 0 Calma 4 Noroeste 0 -- -- 97
2020-09-02 01:00:00 9.9 4 Sudoeste 5 Oeste 0 -- -- 93
2020-09-02 00:00:00 11.4 0 Calma 4 Sudoeste 0 -- -- 92
2020-09-01 23:00:00 12 2 Sudoeste 10 Oeste 0 -- -- 92
2020-09-01 22:00:00 12.4 4 Sudoeste 10 Sudoeste 0 -- -- 92
2020-09-01 21:00:00 13 5 Sudoeste 12 Sudoeste 0 -- -- 91
2020-09-01 20:00:00 14 5 Sudoeste 11 Sudoeste 0 -- -- 86
2020-09-01 19:00:00 15.3 3 Sudoeste 13 Oeste 0 -- -- 80
2020-09-01 18:00:00 16.9 5 Sudoeste 16 Oeste 0 -- -- 73
2020-09-01 17:00:00 19.4 4 Sudoeste 17 Sudoeste 0 -- -- 62
2020-09-01 16:00:00 21.3 4 Sur 15 Sudoeste 0 -- -- 53
2020-09-01 15:00:00 20.7 6 Sudoeste 19 Sur 0 -- -- 52
2020-09-01 14:00:00 20.1 5 Sur 13 Sudoeste 0 -- -- 51
2020-09-01 13:00:00 18.9 4 Sudeste 10 Sur 0 -- -- 53
2020-09-01 12:00:00 16 4 Sudeste 15 Este 0 -- -- 62
2020-09-01 11:00:00 14.4 2 Este 9 Este 0 -- -- 71
2020-09-01 10:00:00 11.1 0 Calma 3 Nordeste 0 -- -- 87
2020-09-01 09:00:00 9.3 0 Calma 3 Oeste 0 -- -- 94
2020-09-01 08:00:00 8.1 0 Calma 5 Sudoeste 0 -- -- 94
2020-09-01 07:00:00 8.5 0 Calma 4 Oeste 0 -- -- 93
2020-09-01 06:00:00 8.8 2 Oeste 5 Oeste 0 -- -- 95
2020-09-01 05:00:00 9.2 0 Calma 3 Sudoeste 0 -- -- 96
2020-09-01 04:00:00 9.1 0 Calma 6 Sudoeste 0 -- -- 94
2020-09-01 03:00:00 9.4 0 Calma 8 Sudoeste 0 -- -- 94
2020-09-01 02:00:00 9.6 2 Oeste 6 Sudoeste 0 -- -- 93
2020-09-01 01:00:00 10.2 2 Oeste 6 Oeste 0 -- -- 91
2020-09-01 00:00:00 10.5 2 Oeste 6 Oeste 0 -- -- 91
2020-08-31 23:00:00 10.9 0 Calma 5 Sudoeste 0 -- -- 90
2020-08-31 22:00:00 11.3 0 Calma 5 Sudoeste 0 -- -- 88
2020-08-31 21:00:00 12.6 3 Sudoeste 5 Oeste 0 -- -- 85
2020-08-31 20:00:00 14.5 4 Sudoeste 6 Sudoeste 0 -- -- 78
2020-08-31 19:00:00 16.8 3 Sudoeste 8 Sudoeste 0 -- -- 68
2020-08-31 18:00:00 17.2 4 Sudoeste 9 Sudoeste 0 -- -- 65
2020-08-31 17:00:00 19.3 2 Sur 8 Sur 0 -- -- 53
2020-08-31 16:00:00 20.2 4 Sur 15 Sur 0 -- -- 47
2020-08-31 15:00:00 19.6 3 Sur 14 Nordeste 0 -- -- 46
2020-08-31 14:00:00 19.2 5 Sur 12 Sudoeste 0 -- -- 48
2020-08-31 13:00:00 18.2 5 Sudoeste 10 Sudoeste 0 -- -- 52
2020-08-31 12:00:00 14.3 5 Este 8 Este 0 -- -- 63
2020-08-31 11:00:00 11.2 4 Este 7 Este 0 -- -- 88
2020-08-31 10:00:00 6.7 0 Calma 5 Oeste 0 -- -- 100
2020-08-31 09:00:00 5.1 0 Calma 4 Oeste 0 -- -- 100
2020-08-31 08:00:00 4.8 0 Calma 6 Oeste 0 -- -- 100
2020-08-31 07:00:00 4.6 0 Calma 4 Noroeste 0 -- -- 100
2020-08-31 06:00:00 4.6 0 Calma 4 Norte 0 -- -- 100
2020-08-31 05:00:00 4.8 0 Calma 4 Oeste 0 -- -- 99
2020-08-31 04:00:00 5.5 0 Calma 4 Oeste 0 -- -- 97
2020-08-31 03:00:00 6.7 0 Calma 4 Sudoeste 0 -- -- 96
2020-08-31 02:00:00 7.9 0 Calma 4 Sudeste 0 -- -- 96
2020-08-31 01:00:00 8.2 0 Calma 4 Sur 0 -- -- 97
2020-08-31 00:00:00 8.3 0 Calma 4 Sur 0 -- -- 97
2020-08-30 23:00:00 8.4 0 Calma 7 Sudoeste 0 -- -- 96
2020-08-30 22:00:00 8.7 2 Sudoeste 5 Sudoeste 0 -- -- 95
2020-08-30 21:00:00 9.2 0 Calma 6 Sudoeste 0 -- -- 92
2020-08-30 20:00:00 10.2 2 Sudoeste 8 Sur 0 -- -- 89
2020-08-30 19:00:00 11.1 3 Sudoeste 8 Oeste 0 -- -- 82
2020-08-30 18:00:00 12 0 Calma 6 Noroeste 0.2 -- -- 75
2020-08-30 17:00:00 10.6 0 Calma 9 Oeste 0 -- -- 87
2020-08-30 16:00:00 10.6 3 Sudoeste 10 Sur 0.2 -- -- 85
2020-08-30 15:00:00 12 3 Este 9 Noroeste 0 -- -- 75
2020-08-30 14:00:00 10.7 4 Noroeste 10 Oeste 0.2 -- -- 83
2020-08-30 13:00:00 11.8 4 Este 9 Nordeste 0 -- -- 77
2020-08-30 12:00:00 10.4 2 Este 8 Nordeste 0 -- -- 85
2020-08-30 11:00:00 8.4 0 Calma 3 Oeste 0.6 -- -- 96
2020-08-30 10:00:00 8.1 0 Calma 5 Noroeste 0.4 -- -- 100
2020-08-30 09:00:00 7 0 Calma 6 Oeste 1 -- -- 100
2020-08-30 08:00:00 6.7 0 Calma 4 Este 1.2 -- -- 100
2020-08-30 07:00:00 6.7 0 Calma 4 Sudoeste 1.2 -- -- 100
2020-08-30 06:00:00 6.6 0 Calma 4 Sudoeste 0.6 -- -- 100
2020-08-30 05:00:00 6.6 2 Sudoeste 4 Sudoeste 0.4 -- -- 100
2020-08-30 04:00:00 6.6 0 Calma 9 Noroeste 0.6 -- -- 100
2020-08-30 03:00:00 6.4 0 Calma 5 Sur 1 -- -- 100
2020-08-30 02:00:00 6.4 2 Sudoeste 4 Oeste 0.6 -- -- 100
2020-08-30 01:00:00 6.7 0 Calma 6 Oeste 1 -- -- 100
2020-08-30 00:00:00 6.8 3 Sudoeste 8 Noroeste 0.4 -- -- 100
2020-08-29 23:00:00 6.9 0 Calma 6 Sudoeste 0.8 -- -- 99
2020-08-29 22:00:00 7.3 0 Calma 7 Este 0.4 -- -- 99
2020-08-29 21:00:00 7.7 2 Oeste 5 Noroeste 0.8 -- -- 98
2020-08-29 20:00:00 8.4 3 Oeste 8 Noroeste 1.6 -- -- 97
2020-08-29 19:00:00 8.7 2 Este 6 Este 2.6 -- -- 98
2020-08-29 18:00:00 9 0 Calma 6 Sudoeste 3.6 -- -- 97
2020-08-29 17:00:00 9.2 2 Norte 8 Oeste 4.2 -- -- 96
2020-08-29 16:00:00 9.6 3 Norte 6 Noroeste 2.2 -- -- 98
2020-08-29 15:00:00 9.5 0 Calma 10 Oeste 1.6 -- -- 96
2020-08-29 14:00:00 9.2 2 Noroeste 5 Oeste 2.4 -- -- 96
2020-08-29 13:00:00 8.9 2 Oeste 8 Noroeste 1.4 -- -- 98
2020-08-29 12:00:00 8.6 2 Sur 5 Sur 3.2 -- -- 99
2020-08-29 11:00:00 8.4 2 Noroeste 7 Noroeste 4.2 -- -- 99
2020-08-29 10:00:00 7.8 2 Noroeste 6 Oeste 4 -- -- 99
2020-08-29 09:00:00 7.7 2 Sudoeste 9 Norte 2.8 -- -- 98
2020-08-29 08:00:00 7.8 5 Sur 12 Sur 0.2 -- -- 94
2020-08-29 07:00:00 8.1 3 Sudoeste 7 Noroeste 1 -- -- 98
2020-08-29 06:00:00 8.3 0 Calma 6 Oeste 0.4 -- -- 96
2020-08-29 05:00:00 8.5 2 Sur 8 Oeste 0.6 -- -- 94
2020-08-29 04:00:00 8.7 4 Noroeste 9 Noroeste 0 -- -- 90
2020-08-29 03:00:00 9.1 4 Sudoeste 13 Sur 0 -- -- 82
2020-08-29 02:00:00 9.4 3 Sudoeste 21 Sur 0 -- -- 72
2020-08-29 01:00:00 8.6 2 Oeste 14 Sur 0 -- -- 77
2020-08-29 00:00:00 9.3 5 Sudoeste 16 Sudeste 0 -- -- 77
2020-08-28 23:00:00 10.2 8 Sur 22 Sur 0 -- -- 75
2020-08-28 22:00:00 10.9 6 Sur 18 Sudoeste 0 -- -- 74
2020-08-28 21:00:00 12 3 Sudoeste 30 Oeste 0 -- -- 61
2020-08-28 20:00:00 13 8 Sudoeste 26 Oeste 0 -- -- 61
2020-08-28 19:00:00 15.1 7 Sudoeste 24 Sur 0 -- -- 57
2020-08-28 18:00:00 17.6 12 Sur 32 Sudoeste 0 -- -- 49
2020-08-28 17:00:00 18 6 Sudeste 19 Sudoeste 0 -- -- 59
2020-08-28 16:00:00 16.4 4 Sudeste 17 Sudoeste 0 -- -- 71
2020-08-28 15:00:00 16.2 5 Este 18 Sudoeste 0 -- -- 81
2020-08-28 14:00:00 15.7 5 Oeste 14 Sur 0 -- -- 80
2020-08-28 13:00:00 16.5 4 Sudoeste 15 Este 0 -- -- 78
2020-08-28 12:00:00 16.2 5 Sur 14 Sudoeste 0 -- -- 84
2020-08-28 11:00:00 14 4 Sur 10 Sudoeste 0 -- -- 90
2020-08-28 10:00:00 13.7 4 Sudoeste 13 Sudoeste 0 -- -- 95
2020-08-28 09:00:00 13.6 5 Sudoeste 11 Sur 0 -- -- 98
2020-08-28 08:00:00 13.9 3 Sudoeste 7 Oeste 0 -- -- 98
2020-08-28 07:00:00 14.7 0 Calma 6 Sur 0 -- -- 98
2020-08-28 06:00:00 15 2 Sur 5 Sur 0 -- -- 98
2020-08-28 05:00:00 15.3 3 Sudoeste 7 Sudoeste 0 -- -- 99
2020-08-28 04:00:00 15.6 0 Calma 4 Sur 0 -- -- 99
2020-08-28 03:00:00 15.7 0 Calma 6 Oeste 0 -- -- 99
2020-08-28 02:00:00 16 2 Sur 6 Noroeste 0 -- -- 100
2020-08-28 01:00:00 16.2 2 Sudoeste 5 Sudoeste 0.2 -- -- 100
2020-08-28 00:00:00 16.4 0 Calma 5 Sudoeste 0 -- -- 99
2020-08-27 23:00:00 16.7 3 Sur 9 Oeste 0 -- -- 98
2020-08-27 22:00:00 17.5 2 Sudoeste 8 Sudoeste 0 -- -- 96
2020-08-27 21:00:00 18 3 Sudoeste 6 Oeste 0 -- -- 94
2020-08-27 20:00:00 18.6 3 Sudoeste 10 Oeste 0 -- -- 92
2020-08-27 19:00:00 20.2 4 Oeste 11 Sudoeste 0 -- -- 84
2020-08-27 18:00:00 22 5 Sudoeste 14 Sudoeste 0 -- -- 78
2020-08-27 17:00:00 24.4 5 Sudoeste 15 Sudoeste 0 -- -- 68
2020-08-27 16:00:00 27.7 5 Sudoeste 16 Sudoeste 0 -- -- 56
2020-08-27 15:00:00 27.3 5 Noroeste 16 Sudoeste 0 -- -- 56
2020-08-27 14:00:00 27 4 Este 15 Sur 0 -- -- 55
2020-08-27 13:00:00 25.6 6 Sudoeste 13 Sudoeste 0 -- -- 60
2020-08-27 12:00:00 21.9 2 Este 8 Este 0 -- -- 71
2020-08-27 11:00:00 19.8 5 Este 8 Nordeste 0 -- -- 80
2020-08-27 10:00:00 17 0 Calma 5 Nordeste 0 -- -- 94
2020-08-27 09:00:00 15.7 0 Calma 3 Oeste 0 -- -- 99
2020-08-27 08:00:00 15 0 Calma 4 Noroeste 0 -- -- 99
2020-08-27 07:00:00 15.1 0 Calma 3 Noroeste 0 -- -- 99
2020-08-27 06:00:00 15 0 Calma 4 Oeste 0 -- -- 98
2020-08-27 05:00:00 15.4 0 Calma 4 Sur 0 -- -- 96
2020-08-27 04:00:00 16.5 0 Calma 5 Sudoeste 0 -- -- 94
2020-08-27 03:00:00 17.6 2 Sudoeste 4 Sudoeste 0 -- -- 92
2020-08-27 02:00:00 17.9 0 Calma 3 Sudoeste 0 -- -- 95
2020-08-27 01:00:00 18.1 0 Calma 4 Sur 0 -- -- 94
2020-08-27 00:00:00 18.3 0 Calma 5 Sur 0 -- -- 94
2020-08-26 23:00:00 18.6 0 Calma 3 Sur 0 -- -- 93
2020-08-26 22:00:00 18.8 0 Calma 7 Sur 0 -- -- 91
2020-08-26 21:00:00 19.4 4 Oeste 9 Sudoeste 0 -- -- 88
2020-08-26 20:00:00 21.2 3 Sudoeste 10 Noroeste 0 -- -- 81
2020-08-26 19:00:00 24.6 5 Oeste 12 Sudoeste 0 -- -- 66
2020-08-26 18:00:00 26.8 4 Sudoeste 10 Sur 0 -- -- 56
2020-08-26 17:00:00 26.9 4 Sudoeste 11 Nordeste 0 -- -- 52
2020-08-26 16:00:00 25.9 4 Este 10 Nordeste 0 -- -- 55
2020-08-26 15:00:00 24.9 4 Sudeste 14 Este 0 -- -- 57
2020-08-26 14:00:00 24 4 Sur 13 Sudoeste 0 -- -- 61
2020-08-26 13:00:00 21.9 4 Sudeste 10 Sudeste 0 -- -- 68
2020-08-26 12:00:00 18.4 4 Este 10 Nordeste 0 -- -- 81
2020-08-26 11:00:00 16.4 3 Este 7 Este 0 -- -- 86
2020-08-26 10:00:00 14.7 3 Sur 5 Sur 0 -- -- 93
2020-08-26 09:00:00 13.8 0 Calma 4 Oeste 0 -- -- 98
2020-08-26 08:00:00 13.4 0 Calma 5 Oeste 0 -- -- 98
2020-08-26 07:00:00 13.5 2 Sudoeste 5 Sur 0 -- -- 98
2020-08-26 06:00:00 13.7 2 Sudeste 5 Sur 0 -- -- 98
2020-08-26 05:00:00 14.1 0 Calma 5 Sur 0 -- -- 97
2020-08-26 04:00:00 14.4 3 Sur 7 Sudoeste 0 -- -- 95
2020-08-26 03:00:00 14.9 2 Sudeste 5 Este 0 -- -- 96
2020-08-26 02:00:00 14.8 0 Calma 4 Sur 0 -- -- 97
2020-08-26 01:00:00 14.2 0 Calma 3 Sur 0 -- -- 97
2020-08-26 00:00:00 14.2 0 Calma 4 Sudoeste 0 -- -- 94
2020-08-25 23:00:00 15.1 0 Calma 3 Sudoeste 0 -- -- 92
2020-08-25 22:00:00 16.3 2 Sudoeste 5 Sudoeste 0 -- -- 88
2020-08-25 21:00:00 17.9 3 Sudoeste 6 Sudoeste 0 -- -- 82
2020-08-25 20:00:00 20.1 3 Sudoeste 9 Sudoeste 0 -- -- 74
2020-08-25 19:00:00 24.3 3 Oeste 13 Sudoeste 0 -- -- 60
2020-08-25 18:00:00 26.1 5 Sudoeste 13 Sudoeste 0 -- -- 54
2020-08-25 17:00:00 27.1 7 Sudoeste 20 Sudoeste 0 -- -- 49
2020-08-25 16:00:00 27.5 5 Sudoeste 13 Sudoeste 0 -- -- 47
2020-08-25 15:00:00 27.3 4 Sudoeste 14 Sur 0 -- -- 44
2020-08-25 14:00:00 26.4 4 Sudoeste 12 Sudoeste 0 -- -- 47
2020-08-25 13:00:00 25.5 4 Nordeste 12 Sudoeste 0 -- -- 52
2020-08-25 12:00:00 22.4 3 Sur 10 Sudoeste 0 -- -- 57
2020-08-25 11:00:00 19.3 3 Este 6 Este 0 -- -- 70
2020-08-25 10:00:00 14.8 0 Calma 3 Noroeste 0 -- -- 83
2020-08-25 09:00:00 13.2 0 Calma 5 Noroeste 0 -- -- 83
2020-08-25 08:00:00 13.4 0 Calma 5 Oeste 0 -- -- 79
2020-08-25 07:00:00 13.9 0 Calma 7 Oeste 0 -- -- 76
2020-08-25 06:00:00 14.4 3 Sudoeste 11 Oeste 0 -- -- 70
2020-08-25 05:00:00 14.2 3 Sudoeste 9 Sur 0 -- -- 72
2020-08-25 04:00:00 13.9 2 Sudoeste 8 Oeste 0 -- -- 80
2020-08-25 03:00:00 14.2 0 Calma 6 Sur 0 -- -- 83
2020-08-25 02:00:00 14.2 2 Sudoeste 6 Oeste 0 -- -- 87
2020-08-25 01:00:00 14 2 Sudoeste 5 Sudoeste 0 -- -- 88
2020-08-25 00:00:00 14.3 0 Calma 5 Este 0 -- -- 88
2020-08-24 23:00:00 14.8 0 Calma 5 Oeste 0 -- -- 89
2020-08-24 22:00:00 15.4 2 Sudoeste 5 Sur 0 -- -- 87
2020-08-24 21:00:00 16.7 0 Calma 4 Sudoeste 0 -- -- 84
2020-08-24 20:00:00 18.5 3 Oeste 5 Oeste 0 -- -- 77
2020-08-24 19:00:00 23.8 3 Oeste 7 Oeste 0 -- -- 59
2020-08-24 18:00:00 25.7 3 Oeste 8 Sur 0 -- -- 50
2020-08-24 17:00:00 25.2 4 Sudoeste 9 Sur 0 -- -- 46
2020-08-24 16:00:00 24.2 4 Sudoeste 12 Sur 0 -- -- 49
2020-08-24 15:00:00 23.2 3 Noroeste 10 Sur 0 -- -- 56
2020-08-24 14:00:00 21.9 5 Sur 11 Este 0 -- -- 49
2020-08-24 13:00:00 20.5 5 Este 12 Este 0 -- -- 66
2020-08-24 12:00:00 17.2 4 Sudeste 10 Sudoeste 0 -- -- 75
2020-08-24 11:00:00 15.4 4 Este 8 Este 0 -- -- 81
2020-08-24 10:00:00 12.7 2 Este 4 Este 0 -- -- 94
2020-08-24 09:00:00 12.4 0 Calma 3 Sur 0 -- -- 97
2020-08-24 08:00:00 12.3 0 Calma 4 Sudoeste 0 -- -- 99
2020-08-24 07:00:00 12.3 2 Oeste 4 Oeste 0.2 -- -- 99
2020-08-24 06:00:00 12.4 0 Calma 5 Sudoeste 0 -- -- 100
2020-08-24 05:00:00 12.8 0 Calma 5 Sudoeste 0 -- -- 100
2020-08-24 04:00:00 13 0 Calma 4 Sur 0 -- -- 99
2020-08-24 03:00:00 13.2 2 Sur 4 Sudoeste 0 -- -- 99
2020-08-24 02:00:00 13.4 0 Calma 4 Oeste 0.2 -- -- 98
2020-08-24 01:00:00 13.5 2 Sudoeste 6 Sudoeste 0 -- -- 98
2020-08-24 00:00:00 13.7 0 Calma 4 Sudoeste 0 -- -- 97
2020-08-23 23:00:00 14 3 Sudoeste 7 Sudoeste 0 -- -- 96
2020-08-23 22:00:00 14.7 3 Sur 8 Oeste 0 -- -- 93
2020-08-23 21:00:00 15.3 3 Oeste 9 Sudoeste 0 -- -- 89
2020-08-23 20:00:00 16.6 5 Sudoeste 13 Sudoeste 0 -- -- 83
2020-08-23 19:00:00 19 5 Sudoeste 11 Sudoeste 0 -- -- 73
2020-08-23 18:00:00 21.7 3 Sudoeste 14 Sur 0 -- -- 63
2020-08-23 17:00:00 22.7 4 Sudoeste 12 Sudeste 0 -- -- 58
2020-08-23 16:00:00 22.8 5 Sudoeste 12 Sur 0 -- -- 56
2020-08-23 15:00:00 21.6 4 Este 14 Sudoeste 0 -- -- 59
2020-08-23 14:00:00 20.9 4 Sur 11 Sudoeste 0 -- -- 61
2020-08-23 13:00:00 19 3 Sudeste 10 Este 0 -- -- 67
2020-08-23 12:00:00 16 4 Este 12 Nordeste 0 -- -- 75
2020-08-23 11:00:00 14.3 5 Este 9 Este 0 -- -- 80
2020-08-23 10:00:00 11.8 0 Calma 3 Norte 0 -- -- 97
2020-08-23 09:00:00 11.3 0 Calma 2 Sudoeste 0 -- -- 99
2020-08-23 08:00:00 10.7 0 Calma 3 Sur 0 -- -- 98
2020-08-23 07:00:00 11.2 0 Calma 4 Sur 0 -- -- 98
2020-08-23 06:00:00 11.5 0 Calma 3 Sudeste 0 -- -- 99
2020-08-23 05:00:00 11.7 0 Calma 5 Sur 0 -- -- 100
2020-08-23 04:00:00 12.2 0 Calma 5 Sudoeste 0 -- -- 100
2020-08-23 03:00:00 12.4 2 Oeste 5 Sudoeste 0 -- -- 100
2020-08-23 02:00:00 12.5 0 Calma 6 Sur 0.2 -- -- 99
2020-08-23 01:00:00 13 0 Calma 4 Sur 0 -- -- 99
2020-08-23 00:00:00 13.1 2 Sur 5 Sudoeste 0.4 -- -- 98
2020-08-22 23:00:00 13.3 2 Sudoeste 5 Sur 0 -- -- 98
2020-08-22 22:00:00 13.5 2 Sudoeste 6 Oeste 0 -- -- 96
2020-08-22 21:00:00 13.9 3 Sudoeste 10 Sudoeste 0 -- -- 94
2020-08-22 20:00:00 15.1 4 Oeste 10 Sudoeste 0 -- -- 88
2020-08-22 19:00:00 16.3 4 Oeste 14 Oeste 0 -- -- 84
2020-08-22 18:00:00 18 5 Sudoeste 13 Sur 0 -- -- 79
2020-08-22 17:00:00 19.2 4 Sudoeste 15 Sudoeste 0 -- -- 74
2020-08-22 16:00:00 22.3 5 Sudoeste 18 Sudoeste 0 -- -- 62
2020-08-22 15:00:00 22.6 7 Sudoeste 21 Sudoeste 0 -- -- 58
2020-08-22 14:00:00 22.4 5 Sudeste 13 Sudoeste 0 -- -- 58
2020-08-22 13:00:00 21 5 Sur 14 Sudoeste 0 -- -- 60
2020-08-22 12:00:00 18.4 4 Este 8 Oeste 0 -- -- 70
2020-08-22 11:00:00 16.3 4 Oeste 9 Sudoeste 0 -- -- 78
2020-08-22 10:00:00 14.9 3 Este 7 Sudeste 0 -- -- 89
2020-08-22 09:00:00 13.5 0 Calma 3 Este 0 -- -- 95
2020-08-22 08:00:00 12.9 0 Calma 3 Sur 0 -- -- 98
2020-08-22 07:00:00 13 2 Este 4 Este 0 -- -- 98
2020-08-22 06:00:00 13.2 0 Calma 2 Sur 0 -- -- 98
2020-08-22 05:00:00 13.3 0 Calma 5 Sudoeste 0 -- -- 97
2020-08-22 04:00:00 13.5 0 Calma 5 Sur 0 -- -- 96
2020-08-22 03:00:00 13.6 0 Calma 5 Sudoeste 0 -- -- 96
2020-08-22 02:00:00 13.9 0 Calma 4 Sudoeste 0 -- -- 96
2020-08-22 01:00:00 14 0 Calma 4 Sur 0 -- -- 95
2020-08-22 00:00:00 14.1 2 Sudoeste 5 Oeste 0 -- -- 94
2020-08-21 23:00:00 14.3 0 Calma 5 Oeste 0 -- -- 93
2020-08-21 22:00:00 14.5 2 Oeste 8 Sudoeste 0 -- -- 92
2020-08-21 21:00:00 14.9 3 Oeste 9 Sur 0 -- -- 90
2020-08-21 20:00:00 15.7 4 Sudoeste 11 Oeste 0 -- -- 87
2020-08-21 19:00:00 17 5 Sudoeste 13 Sudoeste 0 -- -- 82
2020-08-21 18:00:00 19.7 5 Sudoeste 19 Sudoeste 0 -- -- 71
2020-08-21 17:00:00 22 6 Sudoeste 20 Este 0 -- -- 64
2020-08-21 16:00:00 24.2 5 Nordeste 19 Este 0 -- -- 37
2020-08-21 15:00:00 23.9 4 Sudoeste 23 Noroeste 0 -- -- 36
2020-08-21 14:00:00 23 8 Sudoeste 20 Sur 0 -- -- 42
2020-08-21 13:00:00 22.4 4 Este 18 Sur 0 -- -- 49
2020-08-21 12:00:00 20 7 Este 28 Sudoeste 0 -- -- 57
2020-08-21 11:00:00 18.8 5 Sudeste 21 Sudoeste 0 -- -- 66
2020-08-21 10:00:00 15.3 4 Sudeste 12 Nordeste 0 -- -- 78
2020-08-21 09:00:00 15.7 4 Sur 20 Este 0 -- -- 67
2020-08-21 08:00:00 16.3 5 Nordeste 24 Norte 0 -- -- 69
2020-08-21 07:00:00 14.8 4 Sudoeste 26 Noroeste 0 -- -- 82
2020-08-21 06:00:00 13.3 4 Sudoeste 8 Noroeste 0 -- -- 91
2020-08-21 05:00:00 13.8 4 Sudoeste 12 Sudeste 0 -- -- 93
2020-08-21 04:00:00 14.3 4 Sudoeste 11 Sudoeste 0 -- -- 93
2020-08-21 03:00:00 14.8 4 Sudoeste 16 Sur 0 -- -- 91
2020-08-21 02:00:00 15.6 5 Sur 24 Noroeste 0 -- -- 85
2020-08-21 01:00:00 14.8 5 Sur 26 Sur 0 -- -- 88
2020-08-21 00:00:00 16.2 7 Sudoeste 26 Sudeste 0.2 -- -- 72
2020-08-20 23:00:00 15 5 Sur 17 Sudeste 1 -- -- 94
2020-08-20 22:00:00 16.4 4 Sur 18 Sur 1 -- -- 93
2020-08-20 21:00:00 17.5 9 Sudeste 26 Sudoeste 0.6 -- -- 89
2020-08-20 20:00:00 17.7 7 Este 20 Noroeste 0 -- -- 88
2020-08-20 19:00:00 17.5 6 Sur 27 Sur 2.4 -- -- 94
2020-08-20 18:00:00 17.7 6 Sur 27 Noroeste 6.6 -- -- 93
2020-08-20 17:00:00 18.2 5 Sur 16 Este 2.4 -- -- 91
2020-08-20 16:00:00 19.4 3 Sudeste 14 Sudeste 0.8 -- -- 84
2020-08-20 15:00:00 20 6 Sudeste 24 Este 0.6 -- -- 83
2020-08-20 14:00:00 22.4 7 Este 20 Noroeste 0 -- -- 64
2020-08-20 13:00:00 23 7 Nordeste 19 Sur 0 -- -- 60
2020-08-20 12:00:00 21.1 7 Este 23 Este 0 -- -- 65
2020-08-20 11:00:00 18.8 8 Este 27 Sudeste 0.2 -- -- 74
2020-08-20 10:00:00 18.2 7 Este 20 Sur 0 -- -- 73
2020-08-20 09:00:00 16.4 3 Sudoeste 16 Sudoeste 0 -- -- 87
2020-08-20 08:00:00 15.5 4 Sur 14 Sur 0 -- -- 90
2020-08-20 07:00:00 16.3 6 Sur 15 Sudeste 0.2 -- -- 82
2020-08-20 06:00:00 17.8 3 Sur 11 Sur 0 -- -- 62
2020-08-20 05:00:00 18.2 3 Sudeste 12 Sur 0 -- -- 58
2020-08-20 04:00:00 19 5 Norte 22 Norte 0 -- -- 52
2020-08-20 03:00:00 19.9 6 Este 22 Nordeste 0 -- -- 44
2020-08-20 02:00:00 18.8 3 Sudoeste 11 Sur 0 -- -- 49
2020-08-20 01:00:00 20.2 5 Sur 20 Este 0 -- -- 38
2020-08-20 00:00:00 20.2 6 Norte 21 Noroeste 0 -- -- 39
2020-08-19 23:00:00 18.8 4 Oeste 15 Nordeste 0 -- -- 44
2020-08-19 22:00:00 20 5 Sur 18 Sur 0 -- -- 37
2020-08-19 21:00:00 21.5 6 Este 20 Nordeste 0 -- -- 36
2020-08-19 20:00:00 22 6 Este 24 Nordeste 0 -- -- 30
2020-08-19 19:00:00 25 7 Norte 26 Noroeste 0 -- -- 25
2020-08-19 18:00:00 26.1 5 Este 31 Sudeste 0 -- -- 27
2020-08-19 17:00:00 26.3 6 Sudeste 24 Noroeste 0 -- -- 27
2020-08-19 16:00:00 25.6 8 Sudeste 27 Sudoeste 0 -- -- 32
2020-08-19 15:00:00 25.3 8 Sudoeste 32 Sudeste 0 -- -- 29
2020-08-19 14:00:00 25.2 6 Este 33 Sudoeste 0 -- -- 34
2020-08-19 13:00:00 24.9 9 Sur 30 Sudeste 0 -- -- 28
2020-08-19 12:00:00 23.5 8 Sudeste 34 Norte 0 -- -- 31
2020-08-19 11:00:00 23 9 Noroeste 39 Sur 0 -- -- 27
2020-08-19 10:00:00 21.1 10 Norte 33 Noroeste 0 -- -- 30
2020-08-19 09:00:00 19.8 8 Norte 39 Noroeste 0 -- -- 33
2020-08-19 08:00:00 18.4 8 Este 20 Oeste 0 -- -- 34
2020-08-19 07:00:00 17.7 5 Sudeste 23 Noroeste 0 -- -- 44
2020-08-19 06:00:00 16.4 5 Sur 19 Sur 0 -- -- 51
2020-08-19 05:00:00 17.6 6 Sur 20 Oeste 0 -- -- 50
2020-08-19 04:00:00 14.7 5 Oeste 14 Noroeste 0 -- -- 63
2020-08-19 03:00:00 15.9 7 Sudoeste 20 Sur 0 -- -- 65
2020-08-19 02:00:00 16.4 4 Sudoeste 19 Noroeste 0 -- -- 70
2020-08-19 01:00:00 18.1 6 Sudeste 23 Oeste 0 -- -- 62
2020-08-19 00:00:00 18.6 7 Sur 23 Sudoeste 0 -- -- 68